Latest Weather Observations for Karratha

IDW60801

Issued at 11:35 am WST Tuesday 21 October 2014 (issued every 30 minutes, with the page automatically refreshed every 10 minutes)

About weather observations | Map of weather stations | Latest weather observations for WA | Other Formats
Station Details ID: 004083 Name: KARRATHA AERO Lat: -20.71 Lon: 116.77 Height: 5.3 m
Data from the previous 72 hours. | See also: Recent months at Karratha
Date/Time
WST
Temp
°C
App
Temp
°C
Dew
Point
Rel
Hum
%
Delta-T
°C
Wind Press
QNH
hPa
Press
MSL
hPa
Rain
since 9 am
mm
Dir
 
Spd
km/h
Gust
km/h
Spd
kts
Gust
kts
21/11:30am 31.3 29.9 14.4 35 10.3 NW 15 20 8 11 1015.9 1015.9 0.0
21/11:00am 30.3 29.1 16.0 42 8.9 WNW 17 20 9 11 1016.2 1016.2 0.0
21/10:30am 30.0 27.9 12.4 34 10.3 WNW 15 19 8 10 1016.4 1016.4 0.0
21/10:00am 29.5 27.6 12.9 36 9.8 WNW 15 20 8 11 1016.6 1016.6 0.0
21/09:30am 27.9 26.8 14.2 43 8.2 W 13 15 7 8 1016.5 1016.5 0.0
21/09:00am 26.2 26.1 15.9 53 6.3 W 11 15 6 8 1016.6 1016.6 0.0
21/08:30am 24.7 25.1 16.4 60 5.1 W 9 13 5 7 1016.7 1016.7 0.0
21/08:00am 23.8 24.4 16.8 65 4.3 W 9 13 5 7 1016.6 1016.6 0.0
21/07:30am 22.5 22.2 16.5 69 3.7 W 13 17 7 9 1016.5 1016.5 0.0
21/07:00am 21.5 20.7 16.0 71 3.3 WSW 15 19 8 10 1016.2 1016.2 0.0
21/06:30am 20.5 19.8 16.3 77 2.5 WSW 15 20 8 11 1015.8 1015.8 0.0
21/06:00am 20.0 19.3 16.4 80 2.2 WSW 15 20 8 11 1015.5 1015.5 0.0
21/05:30am 20.2 18.6 16.6 80 2.2 WSW 20 24 11 13 1015.3 1015.3 0.0
21/05:00am 20.3 19.3 16.7 80 2.2 WSW 17 20 9 11 1015.2 1015.2 0.0
21/04:30am 20.4 19.9 17.0 81 2.1 WSW 15 19 8 10 1015.0 1015.0 0.0
21/04:00am 20.9 20.1 17.9 83 1.9 WSW 19 22 10 12 1014.8 1014.8 0.0
21/03:30am 21.2 21.1 18.8 86 1.5 WSW 17 20 9 11 1014.6 1014.6 0.0
21/03:00am 21.3 21.2 18.7 85 1.6 WSW 17 22 9 12 1014.7 1014.7 0.0
21/02:30am 21.3 21.3 18.9 86 1.5 SW 17 20 9 11 1014.7 1014.7 0.0
21/02:00am 20.9 21.2 18.7 87 1.4 SW 15 19 8 10 1014.9 1014.9 0.0
21/01:30am 21.2 21.1 18.8 86 1.5 SW 17 22 9 12 1015.0 1015.0 0.0
21/01:00am 21.9 20.6 19.1 84 1.8 SW 24 30 13 16 1015.2 1015.2 0.0
21/12:30am 22.1 21.6 19.1 83 1.9 WSW 20 26 11 14 1015.5 1015.5 0.0
21/12:00am 22.3 21.4 19.1 82 2.0 W 22 28 12 15 1015.4 1015.4 0.0
 
Date/Time
WST
Temp
°C
App
Temp
°C
Dew
Point
Rel
Hum
%
Delta-T
°C
Wind Press
QNH
hPa
Press
MSL
hPa
Rain
since 9 am
mm
Dir
 
Spd
km/h
Gust
km/h
Spd
kts
Gust
kts
20/11:30pm 22.6 21.4 19.2 81 2.2 WSW 24 32 13 17 1015.6 1015.6 0.0
20/11:00pm 22.8 21.1 19.0 79 2.4 WSW 26 35 14 19 1016.0 1016.0 0.0
20/10:30pm 23.0 20.6 18.3 75 2.9 WSW 28 35 15 19 1016.0 1016.0 0.0
20/10:00pm 23.3 21.3 17.5 70 3.6 WSW 24 28 13 15 1015.9 1015.9 0.0
20/09:30pm 23.9 21.3 17.9 69 3.8 W 28 32 15 17 1015.9 1015.9 0.0
20/09:00pm 24.1 22.2 18.5 71 3.5 W 26 32 14 17 1015.7 1015.7 0.0
20/08:30pm 24.7 22.3 18.2 67 4.1 W 28 35 15 19 1015.3 1015.3 0.0
20/08:00pm 24.9 22.3 17.9 65 4.4 W 28 32 15 17 1015.1 1015.1 0.0
20/07:30pm 25.0 22.7 17.5 63 4.7 W 26 33 14 18 1015.0 1015.0 0.0
20/07:00pm 25.2 22.0 16.3 57 5.5 W 28 32 15 17 1014.6 1014.6 0.0
20/06:30pm 25.6 21.9 15.0 52 6.4 W 28 33 15 18 1014.1 1014.1 0.0
20/06:00pm 26.4 21.8 13.5 45 7.6 W 30 33 16 18 1013.8 1013.8 0.0
20/05:30pm 26.9 23.3 14.3 46 7.5 WNW 26 33 14 18 1013.5 1013.5 0.0
20/05:00pm 27.6 24.5 14.6 45 7.8 WNW 24 32 13 17 1013.4 1013.4 0.0
20/04:30pm 28.4 24.7 13.9 41 8.7 WNW 26 33 14 18 1013.1 1013.1 0.0
20/04:00pm 29.2 25.2 13.0 37 9.6 WNW 26 32 14 17 1013.1 1013.1 0.0
20/03:30pm 29.9 25.8 11.4 32 10.7 WNW 24 30 13 16 1013.0 1013.0 0.0
20/03:00pm 30.9 26.2 9.2 26 12.2 NW 24 30 13 16 1013.0 1013.0 0.0
20/02:30pm 30.5 26.1 10.5 29 11.4 WNW 24 30 13 16 1013.1 1013.1 0.0
20/02:00pm 30.4 26.0 10.4 29 11.4 WNW 24 30 13 16 1013.3 1013.3 0.0
20/01:30pm 30.8 27.5 12.7 33 10.7 NW 22 30 12 16 1013.6 1013.6 0.0
20/01:00pm 31.5 27.5 9.1 25 12.6 NW 20 28 11 15 1013.9 1013.9 0.0
20/12:30pm 31.8 28.2 9.9 26 12.5 WNW 19 24 10 13 1014.2 1014.2 0.0
20/12:00pm 31.5 27.8 7.9 23 13.0 WNW 17 22 9 12 1014.5 1014.5 0.0
20/11:30am 31.1 26.2 -0.5 13 15.1 NW 15 20 8 11 1014.8 1014.8 0.0
20/11:00am 30.6 27.1 8.9 26 12.1 WNW 17 22 9 12 1015.2 1015.2 0.0
20/10:30am 29.9 26.2 9.4 28 11.5 W 19 24 10 13 1015.5 1015.5 0.0
20/10:00am 29.0 25.7 9.7 30 10.8 WNW 17 20 9 11 1015.8 1015.8 0.0
20/09:30am 27.7 25.3 11.3 36 9.4 W 15 20 8 11 1016.1 1016.1 0.0
20/09:00am 26.6 24.0 11.9 40 8.4 W 17 20 9 11 1016.1 1016.1 0.0
20/08:30am 25.3 23.2 12.5 45 7.4 WSW 15 20 8 11 1016.2 1016.2 0.0
20/08:00am 23.4 22.3 13.0 52 6.0 W 11 13 6 7 1016.1 1016.1 0.0
20/07:30am 22.6 21.0 12.8 54 5.6 WSW 13 17 7 9 1016.0 1016.0 0.0
20/07:00am 21.4 19.1 13.1 59 4.7 WSW 17 20 9 11 1015.6 1015.6 0.0
20/06:30am 20.4 17.8 13.1 63 4.2 WSW 19 20 10 11 1015.4 1015.4 0.0
20/06:00am 19.4 17.8 12.9 66 3.7 WSW 13 15 7 8 1015.1 1015.1 0.0
20/05:30am 19.2 17.6 12.7 66 3.6 WSW 13 17 7 9 1014.9 1014.9 0.0
20/05:00am 19.4 17.7 12.4 64 3.9 WSW 13 17 7 9 1014.6 1014.6 0.0
20/04:30am 19.5 17.3 12.0 62 4.2 WSW 15 19 8 10 1014.3 1014.3 0.0
20/04:00am 19.7 16.5 12.0 61 4.3 WSW 20 24 11 13 1014.1 1014.1 0.0
20/03:30am 20.2 17.3 12.2 60 4.5 WSW 19 24 10 13 1013.9 1013.9 0.0
20/03:00am 20.7 17.8 12.4 59 4.7 WSW 19 22 10 12 1013.8 1013.8 0.0
20/02:30am 21.1 18.2 12.8 59 4.7 WSW 20 24 11 13 1013.7 1013.7 0.0
20/02:00am 21.5 18.3 13.2 59 4.8 WSW 22 28 12 15 1013.8 1013.8 0.0
20/01:30am 21.9 18.2 13.8 60 4.7 WSW 26 32 14 17 1013.8 1013.8 0.0
20/01:00am 22.2 18.9 15.1 64 4.2 WSW 26 32 14 17 1014.0 1014.0 0.0
20/12:30am 22.3 20.1 15.9 67 3.9 WSW 22 28 12 15 1014.3 1014.3 0.0
20/12:00am 22.4 19.5 15.0 63 4.4 WSW 24 32 13 17 1014.5 1014.5 0.0
 
Date/Time
WST
Temp
°C
App
Temp
°C
Dew
Point
Rel
Hum
%
Delta-T
°C
Wind Press
QNH
hPa
Press
MSL
hPa
Rain
since 9 am
mm
Dir
 
Spd
km/h
Gust
km/h
Spd
kts
Gust
kts
19/11:30pm 22.6 18.8 13.7 57 5.2 WSW 26 32 14 17 1014.7 1014.7 0.0
19/11:00pm 22.7 19.7 12.6 53 5.8 WSW 20 26 11 14 1014.7 1014.7 0.0
19/10:30pm 23.3 19.6 12.6 51 6.1 WSW 24 30 13 16 1014.8 1014.8 0.0
19/10:00pm 23.3 20.6 13.5 54 5.7 WSW 20 26 11 14 1014.9 1014.9 0.0
19/09:30pm 23.7 19.6 13.8 53 5.8 WSW 28 33 15 18 1014.6 1014.6 0.0
19/09:00pm 24.0 20.6 14.7 56 5.5 WSW 26 32 14 17 1014.6 1014.6 0.0
19/08:30pm 24.4 20.8 15.3 57 5.5 W 28 35 15 19 1014.4 1014.4 0.0
19/08:00pm 24.7 20.7 16.2 59 5.2 W 32 39 17 21 1014.0 1014.0 0.0
19/07:30pm 24.6 21.0 17.1 63 4.6 W 32 39 17 21 1013.7 1013.7 0.0
19/07:00pm 24.6 21.0 17.3 64 4.5 W 32 39 17 21 1013.3 1013.3 0.0
19/06:30pm 25.0 20.8 16.2 58 5.4 W 33 39 18 21 1012.9 1012.9 0.0
19/06:00pm 25.9 20.5 12.7 44 7.7 W 33 41 18 22 1012.5 1012.5 0.0
19/05:30pm 27.0 20.1 10.2 35 9.4 W 37 46 20 25 1012.2 1012.2 0.0
19/05:00pm 27.3 21.2 12.9 41 8.4 W 37 46 20 25 1011.9 1011.9 0.0
19/04:30pm 28.5 23.2 14.3 41 8.5 W 35 44 19 24 1011.7 1011.7 0.0
19/04:00pm 28.5 22.2 12.4 37 9.4 W 37 44 20 24 1011.7 1011.7 0.0
19/03:30pm 29.1 23.0 14.1 40 9.0 W 39 44 21 24 1011.9 1011.9 0.0
19/03:00pm 28.8 22.5 13.5 39 9.1 W 39 46 21 25 1011.6 1011.6 0.0
19/02:30pm 29.5 23.9 15.6 43 8.6 W 39 44 21 24 1011.8 1011.8 0.0
19/02:00pm 29.2 24.8 16.7 46 7.8 W 35 41 19 22 1012.1 1012.1 0.0
19/01:30pm 29.4 25.4 16.6 46 8.0 W 33 41 18 22 1012.4 1012.4 0.0
19/01:00pm 29.0 24.7 15.5 44 8.3 W 32 39 17 21 1013.0 1013.0 0.0
19/12:30pm 29.9 26.2 16.0 43 8.6 W 30 35 16 19 1013.4 1013.4 0.0
19/12:00pm 29.2 25.2 14.2 40 9.0 W 28 35 15 19 1013.7 1013.7 0.0
19/11:30am 29.4 26.1 14.0 39 9.3 W 24 35 13 19 1014.0 1014.0 0.0
19/11:00am 29.7 25.1 11.2 31 10.6 W 26 32 14 17 1014.3 1014.3 0.0
19/10:30am 29.0 24.4 11.1 33 10.3 W 26 35 14 19 1014.7 1014.7 0.0
19/10:00am 28.8 24.3 11.4 34 10.0 WSW 26 35 14 19 1015.0 1015.0 0.0
19/09:30am 27.5 23.5 11.9 38 9.0 WSW 24 35 13 19 1015.1 1015.1 0.0
19/09:00am 26.9 22.1 11.8 39 8.7 SW 28 35 15 19 1015.3 1015.3 0.0
19/08:30am 26.2 21.3 12.6 43 7.9 WSW 30 37 16 20 1015.3 1015.3 0.0
19/08:00am 25.1 20.8 13.3 48 6.9 SW 28 35 15 19 1015.2 1015.2 0.0
19/07:30am 24.2 20.3 13.4 51 6.3 SW 26 33 14 18 1015.2 1015.2 0.0
19/07:00am 23.1 21.0 15.2 61 4.7 SW 20 26 11 14 1014.9 1014.9 0.0
19/06:30am 21.9 20.0 15.7 68 3.7 SW 20 26 11 14 1014.5 1014.5 0.0
19/06:00am 21.5 19.9 16.5 73 3.0 SW 20 26 11 14 1013.8 1013.8 0.0
19/05:30am 21.5 20.1 16.5 73 3.0 WSW 19 24 10 13 1013.3 1013.3 0.0
19/05:00am 21.7 20.3 16.6 73 3.1 SW 19 24 10 13 1013.2 1013.2 0.0
19/04:30am 22.1 20.6 16.8 72 3.2 SW 20 26 11 14 1012.8 1012.8 0.0
19/04:00am 22.2 20.8 16.9 72 3.2 SW 20 26 11 14 1012.6 1012.6 0.0
19/03:30am 22.5 20.5 17.4 73 3.1 SW 24 32 13 17 1012.7 1012.7 0.0
19/03:00am 22.7 20.8 18.5 77 2.6 WSW 26 30 14 16 1012.5 1012.5 0.0
19/02:30am 22.9 21.2 18.9 78 2.5 WSW 26 32 14 17 1012.5 1012.5 0.0
19/02:00am 23.0 21.2 18.7 77 2.7 WSW 26 35 14 19 1012.5 1012.5 0.0
19/01:30am 23.1 20.9 18.6 76 2.8 WSW 28 37 15 20 1012.5 1012.5 0.0
19/01:00am 23.2 20.8 18.3 74 3.1 WSW 28 35 15 19 1012.8 1012.8 0.0
19/12:30am 23.3 21.7 18.4 74 3.1 WSW 24 30 13 16 1013.1 1013.1 0.0
19/12:00am 23.5 22.0 18.6 74 3.1 WSW 24 30 13 16 1013.5 1013.5 0.0
 
Date/Time
WST
Temp
°C
App
Temp
°C
Dew
Point
Rel
Hum
%
Delta-T
°C
Wind Press
QNH
hPa
Press
MSL
hPa
Rain
since 9 am
mm
Dir
 
Spd
km/h
Gust
km/h
Spd
kts
Gust
kts
18/11:30pm 23.9 22.5 18.8 73 3.2 WSW 24 30 13 16 1013.6 1013.6 0.0
18/11:00pm 24.5 22.5 19.1 72 3.4 W 28 35 15 19 1013.6 1013.6 0.0
18/10:30pm 24.8 22.8 19.2 71 3.6 W 28 35 15 19 1013.8 1013.8 0.0
18/10:00pm 25.0 23.6 18.9 69 3.9 W 24 30 13 16 1013.8 1013.8 0.0
18/09:30pm 25.0 23.7 19.1 70 3.8 W 24 30 13 16 1013.9 1013.9 0.0
18/09:00pm 25.0 23.4 19.1 70 3.8 W 26 32 14 17 1013.7 1013.7 0.0
18/08:30pm 25.1 23.5 19.2 70 3.8 W 26 32 14 17 1013.3 1013.3 0.0
18/08:00pm 25.1 21.9 18.5 67 4.2 W 33 39 18 21 1013.0 1013.0 0.0
18/07:30pm 25.4 23.0 19.1 68 4.0 W 30 37 16 20 1012.8 1012.8 0.0
18/07:00pm 25.4 22.0 19.1 68 4.0 W 35 41 19 22 1012.4 1012.4 0.0
18/06:30pm 25.7 22.7 18.6 65 4.5 W 32 39 17 21 1012.1 1012.1 0.0
18/06:00pm 26.3 23.5 18.2 61 5.1 W 30 39 16 21 1011.9 1011.9 0.0
18/05:30pm 26.7 23.2 17.5 57 5.8 W 32 39 17 21 1011.7 1011.7 0.0
18/05:00pm 27.0 23.7 18.3 59 5.5 W 33 39 18 21 1011.3 1011.3 0.0
18/04:30pm 27.5 24.5 19.0 59 5.5 W 33 41 18 22 1011.3 1011.3 0.0
18/04:00pm 28.3 25.1 18.7 56 6.2 W 33 43 18 23 1011.3 1011.3 0.0
18/03:30pm 28.4 26.2 19.6 59 5.7 WNW 30 37 16 20 1011.1 1011.1 0.0
18/03:00pm 29.6 27.0 18.7 52 7.0 W 30 37 16 20 1011.0 1011.0 0.0
18/02:30pm 30.1 28.4 19.8 54 6.8 WNW 28 37 15 20 1011.0 1011.0 0.0
18/02:00pm 30.3 28.3 18.4 49 7.7 WNW 26 33 14 18 1011.0 1011.0 0.0
18/01:30pm 30.2 28.6 19.2 51 7.2 WNW 26 33 14 18 1011.3 1011.3 0.0
18/01:00pm 30.0 28.8 20.0 55 6.6 WNW 26 35 14 19 1011.3 1011.3 0.0
18/12:30pm 29.9 28.9 20.5 57 6.2 WNW 26 33 14 18 1011.6 1011.6 0.0
18/12:00pm 29.8 29.5 20.4 57 6.2 WNW 22 28 12 15 1012.2 1012.2 0.0

Other Formats:

Comma delimited format used in spreadsheet applications
http://www.bom.gov.au/fwo/IDW60801/IDW60801.95307.axf

JavaScript Object Notation format (JSON) in row-major order
http://www.bom.gov.au/fwo/IDW60801/IDW60801.95307.json